createdAt,value
2022-08-20T00:01:16.600Z,20.23
2022-08-20T00:03:44.898Z,20.21
2022-08-20T00:06:22.285Z,20.22
2022-08-20T00:08:50.027Z,20.22
2022-08-20T00:11:24.343Z,20.23
2022-08-20T00:13:57.696Z,20.23
2022-08-20T00:16:31.035Z,20.24
2022-08-20T00:19:01.950Z,20.23
2022-08-20T00:21:29.359Z,20.21
2022-08-20T00:23:59.170Z,20.22
2022-08-20T00:26:26.551Z,20.21
2022-08-20T00:28:54.758Z,20.18
2022-08-20T00:31:24.077Z,20.17
2022-08-20T00:33:52.573Z,20.16
2022-08-20T00:36:21.075Z,20.14
2022-08-20T00:38:48.476Z,20.12
2022-08-20T00:41:22.112Z,20.12
2022-08-20T00:44:05.045Z,20.11
2022-08-20T00:46:34.199Z,20.10
2022-08-20T00:49:03.732Z,20.07
2022-08-20T00:51:50.471Z,20.04
2022-08-20T00:54:29.454Z,20.00
2022-08-20T00:57:05.701Z,19.99
2022-08-20T00:59:37.313Z,19.98
2022-08-20T01:02:09.440Z,19.93
2022-08-20T01:04:37.652Z,19.90
2022-08-20T01:07:07.495Z,19.86
2022-08-20T01:09:57.485Z,19.83
2022-08-20T01:12:27.288Z,19.82
2022-08-20T01:14:56.812Z,19.81
2022-08-20T01:17:29.031Z,19.76
2022-08-20T01:20:11.875Z,19.75
2022-08-20T01:23:14.519Z,19.76
2022-08-20T01:25:47.983Z,19.74
2022-08-20T01:28:20.675Z,19.75
2022-08-20T01:30:47.980Z,19.76
2022-08-20T01:33:16.869Z,19.76
2022-08-20T01:35:44.580Z,19.76
2022-08-20T01:38:13.713Z,19.77
2022-08-20T01:40:40.775Z,19.73
2022-08-20T01:43:09.774Z,19.68
2022-08-20T01:45:37.373Z,19.70
2022-08-20T01:48:08.083Z,19.64
2022-08-20T01:50:41.840Z,19.49
2022-08-20T01:53:20.864Z,19.38
2022-08-20T01:55:47.972Z,19.26
2022-08-20T01:58:15.367Z,19.13
2022-08-20T02:00:43.583Z,19.03
2022-08-20T02:03:10.767Z,18.97
2022-08-20T02:05:38.287Z,18.93
2022-08-20T02:08:05.538Z,18.91
2022-08-20T02:10:34.476Z,18.89
2022-08-20T02:13:02.016Z,18.88
2022-08-20T02:15:34.611Z,18.85
2022-08-20T02:18:13.283Z,18.81
2022-08-20T02:20:43.425Z,18.78
2022-08-20T02:23:12.907Z,18.74
2022-08-20T02:25:43.774Z,18.71
2022-08-20T02:28:15.708Z,18.69
2022-08-20T02:30:49.743Z,18.70
2022-08-20T02:33:20.135Z,18.71
2022-08-20T02:35:56.383Z,18.75
2022-08-20T02:38:24.446Z,18.72
2022-08-20T02:40:52.072Z,18.67
2022-08-20T02:43:20.129Z,18.65
2022-08-20T02:45:47.781Z,18.62
2022-08-20T02:48:20.897Z,18.61
2022-08-20T02:51:01.731Z,18.61
2022-08-20T02:53:33.423Z,18.65
2022-08-20T02:56:01.150Z,18.67
2022-08-20T02:58:28.430Z,18.68
2022-08-20T03:00:56.787Z,18.68
2022-08-20T03:03:24.451Z,18.70
2022-08-20T03:05:57.672Z,18.70
2022-08-20T03:08:27.113Z,18.71
2022-08-20T03:10:54.440Z,18.67
2022-08-20T03:13:22.632Z,18.67
2022-08-20T03:16:00.326Z,18.68
2022-08-20T03:18:42.683Z,18.69
2022-08-20T03:21:12.176Z,18.73
2022-08-20T03:23:43.011Z,18.75
2022-08-20T03:26:13.611Z,18.76
2022-08-20T03:28:42.264Z,18.76
2022-08-20T03:31:10.484Z,18.75
2022-08-20T03:33:52.313Z,18.76
2022-08-20T03:36:28.744Z,18.76
2022-08-20T03:38:59.131Z,18.76
2022-08-20T03:41:26.323Z,18.75
2022-08-20T03:43:53.511Z,18.75
2022-08-20T03:46:23.662Z,18.75
2022-08-20T03:48:55.355Z,18.75
2022-08-20T03:51:30.256Z,18.74
2022-08-20T03:53:58.437Z,18.78
2022-08-20T03:56:26.311Z,18.82
2022-08-20T03:58:53.579Z,18.83
2022-08-20T04:01:44.571Z,18.82
2022-08-20T04:04:12.495Z,18.83
2022-08-20T04:06:41.244Z,18.83
2022-08-20T04:09:11.991Z,18.85
2022-08-20T04:11:41.735Z,18.85
2022-08-20T04:14:11.419Z,18.85
2022-08-20T04:16:42.032Z,18.85
2022-08-20T04:19:09.117Z,18.85
2022-08-20T04:21:36.908Z,18.83
2022-08-20T04:24:05.940Z,18.82
2022-08-20T04:26:36.377Z,18.83
2022-08-20T04:29:05.004Z,18.83
2022-08-20T04:31:35.149Z,18.79
2022-08-20T04:34:07.688Z,18.80
2022-08-20T04:36:35.546Z,18.79
2022-08-20T04:39:03.591Z,18.83
2022-08-20T04:41:30.724Z,18.86
2022-08-20T04:43:58.303Z,18.91
2022-08-20T04:46:28.644Z,18.93
2022-08-20T04:48:57.668Z,18.97
2022-08-20T04:51:26.779Z,19.00
2022-08-20T04:53:56.540Z,19.04
2022-08-20T04:56:31.648Z,19.04
2022-08-20T04:59:01.542Z,19.05
2022-08-20T05:01:29.628Z,19.11
2022-08-20T05:03:58.045Z,19.13
2022-08-20T05:06:30.113Z,19.12
2022-08-20T05:08:59.690Z,19.10
2022-08-20T05:11:35.802Z,19.08
2022-08-20T05:14:08.551Z,19.10
2022-08-20T05:16:39.298Z,19.13
2022-08-20T05:19:11.436Z,19.12
2022-08-20T05:21:39.797Z,19.13
2022-08-20T05:24:08.164Z,19.14
2022-08-20T05:26:36.127Z,19.12
2022-08-20T05:29:05.302Z,19.10
2022-08-20T05:31:33.691Z,19.07
2022-08-20T05:34:10.286Z,19.04
2022-08-20T05:36:45.355Z,19.00
2022-08-20T05:39:15.182Z,18.95
2022-08-20T05:41:42.541Z,18.94
2022-08-20T05:44:13.326Z,18.93
2022-08-20T05:46:43.876Z,18.93
2022-08-20T05:49:16.809Z,18.92
2022-08-20T05:51:44.550Z,18.92
2022-08-20T05:54:15.150Z,18.92
2022-08-20T05:56:43.400Z,18.98
2022-08-20T05:59:12.528Z,19.04
2022-08-20T06:01:41.364Z,19.11
2022-08-20T06:04:25.067Z,19.16
2022-08-20T06:06:56.620Z,19.19
2022-08-20T06:09:30.966Z,19.19
2022-08-20T06:12:02.533Z,19.27
2022-08-20T06:14:30.334Z,19.34
2022-08-20T06:17:15.176Z,19.40
2022-08-20T06:19:44.823Z,19.38
2022-08-20T06:22:19.185Z,19.34
2022-08-20T06:24:52.693Z,19.32
2022-08-20T06:27:20.631Z,19.31
2022-08-20T06:29:48.093Z,19.31
2022-08-20T06:32:16.415Z,19.32
2022-08-20T06:34:50.727Z,19.34
2022-08-20T06:37:30.935Z,19.34
2022-08-20T06:40:12.304Z,19.35
2022-08-20T06:42:47.785Z,19.34
2022-08-20T06:45:32.501Z,19.34
2022-08-20T06:48:07.379Z,19.33
2022-08-20T06:50:47.239Z,19.39
2022-08-20T06:53:20.658Z,19.48
2022-08-20T06:55:54.256Z,19.62
2022-08-20T06:58:35.621Z,19.70
2022-08-20T07:01:11.405Z,19.70
2022-08-20T07:03:54.059Z,19.77
2022-08-20T07:06:27.342Z,19.89
2022-08-20T07:08:55.845Z,19.90
2022-08-20T07:11:27.689Z,20.01
2022-08-20T07:13:59.344Z,20.16
2022-08-20T07:16:27.375Z,20.33
2022-08-20T07:18:54.967Z,20.39
2022-08-20T07:21:22.176Z,20.40
2022-08-20T07:23:49.391Z,20.44
2022-08-20T07:26:17.989Z,20.55
2022-08-20T07:28:45.962Z,20.67
2022-08-20T07:31:31.820Z,20.78
2022-08-20T07:34:03.432Z,21.00
2022-08-20T07:36:31.219Z,21.14
2022-08-20T07:38:58.357Z,21.16
2022-08-20T07:41:25.535Z,21.23
2022-08-20T07:43:52.583Z,21.35
2022-08-20T07:46:21.608Z,21.39
2022-08-20T07:48:51.203Z,21.33
2022-08-20T07:51:22.354Z,21.50
2022-08-20T07:53:51.924Z,21.54
2022-08-20T07:56:24.175Z,21.55
2022-08-20T07:58:56.224Z,21.50
2022-08-20T08:01:29.623Z,21.57
2022-08-20T08:03:58.397Z,21.69
2022-08-20T08:06:29.118Z,21.73
2022-08-20T08:09:18.188Z,21.76
2022-08-20T08:11:50.495Z,21.64
2022-08-20T08:14:23.678Z,21.53
2022-08-20T08:16:54.526Z,21.50
2022-08-20T08:19:21.834Z,21.55
2022-08-20T08:21:49.530Z,21.85
2022-08-20T08:24:21.126Z,22.21
2022-08-20T08:26:50.058Z,22.43
2022-08-20T08:29:17.459Z,22.60
2022-08-20T08:31:44.651Z,22.71
2022-08-20T08:34:11.923Z,22.86
2022-08-20T08:36:40.671Z,22.93
2022-08-20T08:39:07.871Z,23.07
2022-08-20T08:41:50.144Z,23.03
2022-08-20T08:44:27.299Z,23.03
2022-08-20T08:47:00.906Z,22.83
2022-08-20T08:49:38.063Z,22.58
2022-08-20T08:52:15.932Z,22.31
2022-08-20T08:54:51.512Z,22.07
2022-08-20T08:57:19.426Z,21.93
2022-08-20T09:00:03.950Z,21.82
2022-08-20T09:02:36.152Z,21.77
2022-08-20T09:05:15.698Z,22.15
2022-08-20T09:07:49.779Z,22.62
2022-08-20T09:10:23.427Z,23.00
2022-08-20T09:12:52.318Z,23.07
2022-08-20T09:15:21.329Z,22.94
2022-08-20T09:17:48.744Z,22.79
2022-08-20T09:20:18.307Z,22.60
2022-08-20T09:22:45.352Z,22.34
2022-08-20T09:25:13.135Z,22.09
2022-08-20T09:27:41.516Z,21.91
2022-08-20T09:30:13.063Z,21.74
2022-08-20T09:32:41.463Z,21.62
2022-08-20T09:35:10.410Z,21.80
2022-08-20T09:37:37.906Z,22.06
2022-08-20T09:40:08.807Z,22.41
2022-08-20T09:42:41.229Z,22.82
2022-08-20T09:45:12.759Z,23.16
2022-08-20T09:47:41.725Z,23.25
2022-08-20T09:50:22.411Z,23.38
2022-08-20T09:52:54.617Z,23.43
2022-08-20T09:55:38.816Z,23.39
2022-08-20T09:58:27.155Z,23.57
2022-08-20T10:00:54.263Z,23.74
2022-08-20T10:03:21.305Z,23.97
2022-08-20T10:05:48.506Z,24.19
2022-08-20T10:08:15.787Z,24.41
2022-08-20T10:10:43.896Z,24.32
2022-08-20T10:13:12.770Z,24.46
2022-08-20T10:15:44.488Z,24.61
2022-08-20T10:18:12.400Z,24.80
2022-08-20T10:20:40.585Z,24.99
2022-08-20T10:23:11.684Z,25.00
2022-08-20T10:25:41.005Z,24.94
2022-08-20T10:28:08.809Z,25.08
2022-08-20T10:30:36.168Z,25.35
2022-08-20T10:33:03.674Z,25.49
2022-08-20T10:35:30.863Z,25.36
2022-08-20T10:37:58.063Z,25.22
2022-08-20T10:40:25.754Z,25.06
2022-08-20T10:42:52.991Z,24.93
2022-08-20T10:45:21.603Z,24.70
2022-08-20T10:47:48.730Z,24.60
2022-08-20T10:50:17.024Z,24.57
2022-08-20T10:52:44.207Z,24.41
2022-08-20T10:55:11.995Z,24.46
2022-08-20T10:57:42.107Z,24.62
2022-08-20T11:00:14.754Z,24.46
2022-08-20T11:02:41.994Z,24.64
2022-08-20T11:05:09.340Z,24.88
2022-08-20T11:07:49.864Z,24.90
2022-08-20T11:10:29.788Z,24.91
2022-08-20T11:12:59.711Z,25.05
2022-08-20T11:15:27.351Z,24.95
2022-08-20T11:17:56.727Z,24.78
2022-08-20T11:20:26.393Z,24.52
2022-08-20T11:22:55.905Z,24.42
2022-08-20T11:25:25.001Z,24.57
2022-08-20T11:27:55.006Z,24.86
2022-08-20T11:30:30.938Z,25.19
2022-08-20T11:33:00.814Z,25.50
2022-08-20T11:35:43.484Z,25.69
2022-08-20T11:38:18.981Z,25.60
2022-08-20T11:40:46.986Z,25.33
2022-08-20T11:43:16.938Z,24.99
2022-08-20T11:45:49.654Z,24.83
2022-08-20T11:48:18.386Z,25.02
2022-08-20T11:50:47.470Z,25.28
2022-08-20T11:53:16.688Z,25.50
2022-08-20T11:55:44.690Z,25.45
2022-08-20T11:58:12.859Z,25.59
2022-08-20T12:00:40.070Z,25.76
2022-08-20T12:03:10.416Z,26.05
2022-08-20T12:05:43.097Z,26.38
2022-08-20T12:08:27.005Z,26.61
2022-08-20T12:10:58.683Z,26.84
2022-08-20T12:13:47.217Z,26.67
2022-08-20T12:16:19.591Z,26.62
2022-08-20T12:18:47.892Z,26.49
2022-08-20T12:21:16.247Z,26.43
2022-08-20T12:23:43.916Z,26.41
2022-08-20T12:26:12.093Z,26.63
2022-08-20T12:28:39.231Z,26.79
2022-08-20T12:31:06.577Z,26.98
2022-08-20T12:33:33.658Z,27.26
2022-08-20T12:36:00.979Z,27.50
2022-08-20T12:38:28.213Z,27.69
2022-08-20T12:40:55.375Z,27.78
2022-08-20T12:43:24.984Z,27.92
2022-08-20T12:45:52.911Z,28.01
2022-08-20T12:48:20.999Z,27.98
2022-08-20T12:50:50.079Z,27.94
2022-08-20T12:53:17.624Z,27.91
2022-08-20T12:55:45.869Z,27.84
2022-08-20T12:58:13.599Z,27.79
2022-08-20T13:00:48.598Z,27.77
2022-08-20T13:03:20.475Z,27.76
2022-08-20T13:05:49.878Z,27.83
2022-08-20T13:08:19.089Z,27.56
2022-08-20T13:10:46.369Z,27.56
2022-08-20T13:13:17.671Z,27.65
2022-08-20T13:15:50.727Z,27.80
2022-08-20T13:18:18.682Z,27.94
2022-08-20T13:20:45.991Z,27.69
2022-08-20T13:23:13.126Z,27.77
2022-08-20T13:25:40.237Z,27.87
2022-08-20T13:28:07.361Z,28.11
2022-08-20T13:30:38.685Z,28.35
2022-08-20T13:33:05.911Z,28.54
2022-08-20T13:35:33.808Z,28.71
2022-08-20T13:38:00.947Z,28.76
2022-08-20T13:40:28.243Z,28.79
2022-08-20T13:42:55.480Z,28.79
2022-08-20T13:45:23.008Z,28.83
2022-08-20T13:47:55.107Z,28.91
2022-08-20T13:50:25.575Z,29.04
2022-08-20T13:52:54.815Z,29.05
2022-08-20T13:55:26.780Z,28.86
2022-08-20T13:57:56.816Z,28.59
2022-08-20T14:00:31.316Z,28.22
2022-08-20T14:03:05.754Z,27.77
2022-08-20T14:05:35.347Z,27.43
2022-08-20T14:08:21.478Z,27.36
2022-08-20T14:10:51.472Z,27.23
2022-08-20T14:13:23.625Z,27.29
2022-08-20T14:15:51.384Z,27.63
2022-08-20T14:18:19.266Z,27.93
2022-08-20T14:20:46.740Z,28.20
2022-08-20T14:23:15.395Z,28.13
2022-08-20T14:25:50.114Z,27.95
2022-08-20T14:28:22.221Z,27.64
2022-08-20T14:30:53.174Z,27.46
2022-08-20T14:33:22.229Z,27.35
2022-08-20T14:35:49.698Z,27.49
2022-08-20T14:38:16.998Z,27.77
2022-08-20T14:40:44.250Z,27.99
2022-08-20T14:43:11.508Z,28.01
2022-08-20T14:45:38.988Z,28.04
2022-08-20T14:48:09.440Z,27.91
2022-08-20T14:50:37.992Z,27.66
2022-08-20T14:53:05.842Z,27.37
2022-08-20T14:55:37.587Z,27.17
2022-08-20T14:58:10.926Z,27.15
2022-08-20T15:00:38.176Z,27.17
2022-08-20T15:03:05.461Z,27.44
2022-08-20T15:05:33.792Z,27.73
2022-08-20T15:08:01.010Z,27.99
2022-08-20T15:10:33.732Z,28.13
2022-08-20T15:13:01.211Z,28.23
2022-08-20T15:15:28.618Z,28.23
2022-08-20T15:18:02.588Z,28.26
2022-08-20T15:20:33.799Z,28.38
2022-08-20T15:23:01.896Z,28.34
2022-08-20T15:25:36.390Z,28.23
2022-08-20T15:28:09.575Z,28.14
2022-08-20T15:30:40.528Z,28.02
2022-08-20T15:33:10.344Z,27.92
2022-08-20T15:35:38.012Z,27.83
2022-08-20T15:38:05.261Z,27.79
2022-08-20T15:40:33.203Z,27.75
2022-08-20T15:43:02.934Z,27.72
2022-08-20T15:45:30.460Z,27.72
2022-08-20T15:48:16.831Z,27.75
2022-08-20T15:51:27.465Z,27.66
2022-08-20T15:54:02.563Z,27.61
2022-08-20T15:57:11.763Z,27.50
2022-08-20T16:00:15.334Z,27.50
2022-08-20T16:03:38.987Z,27.66
2022-08-20T16:06:17.384Z,27.73
2022-08-20T16:09:11.022Z,27.65
2022-08-20T16:12:09.564Z,27.62
2022-08-20T16:14:41.967Z,27.50
2022-08-20T16:17:40.331Z,27.21
2022-08-20T16:20:21.671Z,26.97
2022-08-20T16:22:49.666Z,26.81
2022-08-20T16:25:22.750Z,26.99
2022-08-20T16:28:23.830Z,27.20
2022-08-20T16:31:08.693Z,27.34
2022-08-20T16:34:32.906Z,27.49
2022-08-20T16:37:53.569Z,27.53
2022-08-20T16:40:31.903Z,27.56
2022-08-20T16:43:06.452Z,27.13
2022-08-20T16:45:45.610Z,26.70
2022-08-20T16:48:19.511Z,26.56
2022-08-20T16:51:03.509Z,26.57
2022-08-20T16:53:31.571Z,26.36
2022-08-20T16:55:58.772Z,26.15
2022-08-20T16:58:25.956Z,25.99
2022-08-20T17:01:11.500Z,25.98
2022-08-20T17:03:49.725Z,25.97
2022-08-20T17:06:49.831Z,25.96
2022-08-20T17:09:53.094Z,26.14
2022-08-20T17:12:25.351Z,26.25
2022-08-20T17:14:58.556Z,26.27
2022-08-20T17:17:36.833Z,26.23
2022-08-20T17:20:20.101Z,26.25
2022-08-20T17:22:52.739Z,26.17
2022-08-20T17:25:38.114Z,26.15
2022-08-20T17:28:17.575Z,26.07
2022-08-20T17:30:47.338Z,26.03
2022-08-20T17:33:36.435Z,25.99
2022-08-20T17:36:20.141Z,25.95
2022-08-20T17:38:51.941Z,25.83
2022-08-20T17:41:36.052Z,25.74
2022-08-20T17:44:19.831Z,25.67
2022-08-20T17:46:48.846Z,25.60
2022-08-20T17:49:34.839Z,25.54
2022-08-20T17:52:16.031Z,25.39
2022-08-20T17:54:48.025Z,25.25
2022-08-20T17:57:23.835Z,25.01
2022-08-20T18:00:08.194Z,24.75
2022-08-20T18:02:37.059Z,24.60
2022-08-20T18:05:18.123Z,24.48
2022-08-20T18:08:10.759Z,24.24
2022-08-20T18:11:09.734Z,24.03
2022-08-20T18:14:05.099Z,23.88
2022-08-20T18:16:58.743Z,23.74
2022-08-20T18:20:10.038Z,23.58
2022-08-20T18:22:53.518Z,23.40
2022-08-20T18:25:37.246Z,23.23
2022-08-20T18:28:21.998Z,23.07
2022-08-20T18:30:59.137Z,22.87
2022-08-20T18:33:30.007Z,22.67
2022-08-20T18:36:26.409Z,22.43
2022-08-20T18:39:11.231Z,22.24
2022-08-20T18:41:58.022Z,22.06
2022-08-20T18:44:45.180Z,21.88
2022-08-20T18:47:29.132Z,21.72
2022-08-20T18:50:06.591Z,21.59
2022-08-20T18:52:52.382Z,21.46
2022-08-20T18:55:40.704Z,21.31
2022-08-20T18:58:28.209Z,21.21
2022-08-20T19:00:55.535Z,21.09
2022-08-20T19:03:50.771Z,21.04
2022-08-20T19:06:43.053Z,20.96
2022-08-20T19:09:27.617Z,20.86
2022-08-20T19:12:31.650Z,20.76
2022-08-20T19:15:11.650Z,20.69
2022-08-20T19:18:10.816Z,20.62
2022-08-20T19:20:56.792Z,20.53
2022-08-20T19:23:28.983Z,20.45
2022-08-20T19:26:25.235Z,20.39
2022-08-20T19:29:00.430Z,20.32
2022-08-20T19:31:34.541Z,20.28
2022-08-20T19:34:22.441Z,20.22
2022-08-20T19:37:27.597Z,20.20
2022-08-20T19:40:06.811Z,20.17
2022-08-20T19:42:42.874Z,20.15
2022-08-20T19:45:24.053Z,20.10
2022-08-20T19:49:07.651Z,20.06
2022-08-20T19:52:03.139Z,20.01
2022-08-20T19:54:31.119Z,19.94
2022-08-20T19:57:06.886Z,19.89
2022-08-20T19:59:34.843Z,19.80
2022-08-20T20:02:19.923Z,19.74
2022-08-20T20:04:55.405Z,19.65
2022-08-20T20:07:41.548Z,19.59
2022-08-20T20:10:40.511Z,19.51
2022-08-20T20:13:13.939Z,19.41
2022-08-20T20:15:42.348Z,19.35
2022-08-20T20:18:10.522Z,19.29
2022-08-20T20:20:57.392Z,19.21
2022-08-20T20:23:46.073Z,19.15
2022-08-20T20:26:20.203Z,19.06
2022-08-20T20:28:54.676Z,18.98
2022-08-20T20:31:32.724Z,18.91
2022-08-20T20:34:10.068Z,18.87
2022-08-20T20:36:47.627Z,18.80
2022-08-20T20:39:36.910Z,18.76
2022-08-20T20:42:11.151Z,18.73
2022-08-20T20:44:44.435Z,18.67
2022-08-20T20:47:27.291Z,18.63
2022-08-20T20:50:10.354Z,18.58
2022-08-20T20:52:54.448Z,18.55
2022-08-20T20:55:25.595Z,18.47
2022-08-20T20:57:53.425Z,18.40
2022-08-20T21:00:25.624Z,18.35
2022-08-20T21:02:53.210Z,18.26
2022-08-20T21:05:24.973Z,18.22
2022-08-20T21:07:58.060Z,18.13
2022-08-20T21:10:34.414Z,18.07
2022-08-20T21:13:04.472Z,18.02
2022-08-20T21:15:35.811Z,17.96
2022-08-20T21:18:06.580Z,17.90
2022-08-20T21:20:34.195Z,17.84
2022-08-20T21:23:01.495Z,17.77
2022-08-20T21:25:32.864Z,17.70
2022-08-20T21:28:01.166Z,17.63
2022-08-20T21:30:31.209Z,17.59
2022-08-20T21:32:58.453Z,17.51
2022-08-20T21:35:26.020Z,17.47
2022-08-20T21:37:53.604Z,17.44
2022-08-20T21:40:21.495Z,17.39
2022-08-20T21:42:52.669Z,17.34
2022-08-20T21:45:21.133Z,17.31
2022-08-20T21:47:49.068Z,17.26
2022-08-20T21:50:21.575Z,17.25
2022-08-20T21:52:58.054Z,17.21
2022-08-20T21:55:30.702Z,17.14
2022-08-20T21:57:59.926Z,17.10
2022-08-20T22:01:05.085Z,17.05
2022-08-20T22:03:37.201Z,16.97
2022-08-20T22:06:09.838Z,16.92
2022-08-20T22:08:37.511Z,16.90
2022-08-20T22:11:08.138Z,16.87
2022-08-20T22:13:37.023Z,16.84
2022-08-20T22:16:10.090Z,16.76
2022-08-20T22:18:38.264Z,16.76
2022-08-20T22:21:13.966Z,16.75
2022-08-20T22:23:41.265Z,16.73
2022-08-20T22:26:10.767Z,16.70
2022-08-20T22:28:38.597Z,16.67
2022-08-20T22:31:07.504Z,16.65
2022-08-20T22:33:35.633Z,16.60
2022-08-20T22:36:06.068Z,16.57
2022-08-20T22:38:34.250Z,16.53
2022-08-20T22:41:05.151Z,16.48
2022-08-20T22:43:34.914Z,16.43
2022-08-20T22:46:15.068Z,16.39
2022-08-20T22:48:43.652Z,16.33
2022-08-20T22:51:26.715Z,16.28
2022-08-20T22:53:54.001Z,16.22
2022-08-20T22:56:21.732Z,16.17
2022-08-20T22:58:51.080Z,16.10
2022-08-20T23:01:20.012Z,16.06
2022-08-20T23:03:47.138Z,16.01
2022-08-20T23:06:15.458Z,15.97
2022-08-20T23:08:42.694Z,15.92
2022-08-20T23:11:09.900Z,15.89
2022-08-20T23:13:37.871Z,15.83
2022-08-20T23:16:06.548Z,15.79
2022-08-20T23:18:33.913Z,15.76
2022-08-20T23:21:01.420Z,15.71
2022-08-20T23:23:28.607Z,15.65
2022-08-20T23:25:56.047Z,15.61
2022-08-20T23:28:25.239Z,15.56
2022-08-20T23:30:52.777Z,15.51
2022-08-20T23:33:20.044Z,15.48
2022-08-20T23:35:48.315Z,15.44
2022-08-20T23:38:15.707Z,15.42
2022-08-20T23:40:43.204Z,15.36
2022-08-20T23:43:14.020Z,15.33
2022-08-20T23:45:42.267Z,15.28
2022-08-20T23:48:09.558Z,15.24
2022-08-20T23:50:37.435Z,15.20
2022-08-20T23:53:05.113Z,15.17
2022-08-20T23:55:32.729Z,15.17
2022-08-20T23:58:00.040Z,15.11
